sensor_id;sensor_type;location;lat;lon;timestamp;pressure;altitude;pressure_sealevel;temperature;humidity
12219;BME280;6172;42.646;23.344;2023-05-20T00:00:35;94932.72;;;10.60;100.00
12219;BME280;6172;42.646;23.344;2023-05-20T00:03:01;94931.06;;;10.66;100.00
12219;BME280;6172;42.646;23.344;2023-05-20T00:05:29;94936.00;;;10.75;100.00
12219;BME280;6172;42.646;23.344;2023-05-20T00:07:57;94934.78;;;10.79;100.00
12219;BME280;6172;42.646;23.344;2023-05-20T00:10:24;94933.03;;;10.66;100.00
12219;BME280;6172;42.646;23.344;2023-05-20T00:12:51;94943.66;;;10.57;100.00
12219;BME280;6172;42.646;23.344;2023-05-20T00:15:18;94928.81;;;10.61;100.00
12219;BME280;6172;42.646;23.344;2023-05-20T00:17:45;94938.00;;;10.71;100.00
12219;BME280;6172;42.646;23.344;2023-05-20T00:20:12;94937.75;;;10.62;100.00
12219;BME280;6172;42.646;23.344;2023-05-20T00:22:39;94941.03;;;10.46;100.00
12219;BME280;6172;42.646;23.344;2023-05-20T00:25:08;94934.50;;;10.40;100.00
12219;BME280;6172;42.646;23.344;2023-05-20T00:27:35;94945.44;;;10.33;100.00
12219;BME280;6172;42.646;23.344;2023-05-20T00:30:02;94942.53;;;10.17;100.00
12219;BME280;6172;42.646;23.344;2023-05-20T00:32:29;94937.13;;;10.10;100.00
12219;BME280;6172;42.646;23.344;2023-05-20T00:34:56;94936.53;;;10.29;100.00
12219;BME280;6172;42.646;23.344;2023-05-20T00:37:23;94933.34;;;10.37;100.00
12219;BME280;6172;42.646;23.344;2023-05-20T00:39:50;94923.22;;;10.38;100.00
12219;BME280;6172;42.646;23.344;2023-05-20T00:42:22;94921.94;;;10.46;100.00
12219;BME280;6172;42.646;23.344;2023-05-20T00:44:49;94910.25;;;10.49;100.00
12219;BME280;6172;42.646;23.344;2023-05-20T00:47:17;94914.97;;;10.45;100.00
12219;BME280;6172;42.646;23.344;2023-05-20T00:49:44;94903.25;;;10.48;100.00
12219;BME280;6172;42.646;23.344;2023-05-20T00:52:11;94907.44;;;10.56;100.00
12219;BME280;6172;42.646;23.344;2023-05-20T00:54:39;94898.53;;;10.52;100.00
12219;BME280;6172;42.646;23.344;2023-05-20T00:57:06;94892.38;;;10.44;100.00
12219;BME280;6172;42.646;23.344;2023-05-20T00:59:36;94885.78;;;10.46;100.00
12219;BME280;6172;42.646;23.344;2023-05-20T01:02:03;94883.38;;;10.51;100.00
12219;BME280;6172;42.646;23.344;2023-05-20T01:04:30;94895.78;;;10.56;100.00
12219;BME280;6172;42.646;23.344;2023-05-20T01:06:58;94893.81;;;10.56;100.00
12219;BME280;6172;42.646;23.344;2023-05-20T01:09:26;94893.50;;;10.51;100.00
12219;BME280;6172;42.646;23.344;2023-05-20T01:12:02;94896.34;;;10.40;100.00
12219;BME280;6172;42.646;23.344;2023-05-20T01:14:36;94905.16;;;10.17;100.00
12219;BME280;6172;42.646;23.344;2023-05-20T01:17:04;94906.31;;;9.79;100.00
12219;BME280;6172;42.646;23.344;2023-05-20T01:19:40;94926.28;;;9.59;100.00
12219;BME280;6172;42.646;23.344;2023-05-20T01:22:08;94924.91;;;9.37;100.00
12219;BME280;6172;42.646;23.344;2023-05-20T01:24:40;94929.50;;;9.47;100.00
12219;BME280;6172;42.646;23.344;2023-05-20T01:27:08;94928.41;;;9.41;100.00
12219;BME280;6172;42.646;23.344;2023-05-20T01:29:36;94929.94;;;9.38;100.00
12219;BME280;6172;42.646;23.344;2023-05-20T01:32:05;94938.84;;;9.46;100.00
12219;BME280;6172;42.646;23.344;2023-05-20T01:34:34;94931.28;;;9.67;100.00
12219;BME280;6172;42.646;23.344;2023-05-20T01:37:03;94925.38;;;9.76;100.00
12219;BME280;6172;42.646;23.344;2023-05-20T01:39:31;94919.13;;;9.79;100.00
12219;BME280;6172;42.646;23.344;2023-05-20T01:42:01;94914.88;;;9.74;100.00
12219;BME280;6172;42.646;23.344;2023-05-20T01:44:29;94917.59;;;9.78;100.00
12219;BME280;6172;42.646;23.344;2023-05-20T01:46:56;94911.38;;;9.77;100.00
12219;BME280;6172;42.646;23.344;2023-05-20T01:49:23;94907.81;;;9.84;100.00
12219;BME280;6172;42.646;23.344;2023-05-20T01:51:50;94900.44;;;9.81;100.00
12219;BME280;6172;42.646;23.344;2023-05-20T01:54:16;94908.00;;;9.63;100.00
12219;BME280;6172;42.646;23.344;2023-05-20T01:56:45;94910.44;;;9.47;100.00
12219;BME280;6172;42.646;23.344;2023-05-20T01:59:13;94916.41;;;9.31;100.00
12219;BME280;6172;42.646;23.344;2023-05-20T02:01:40;94912.44;;;9.43;100.00
12219;BME280;6172;42.646;23.344;2023-05-20T02:04:07;94912.75;;;9.52;100.00
12219;BME280;6172;42.646;23.344;2023-05-20T02:06:33;94908.91;;;9.46;100.00
12219;BME280;6172;42.646;23.344;2023-05-20T02:09:00;94908.16;;;9.42;100.00
12219;BME280;6172;42.646;23.344;2023-05-20T02:11:27;94911.31;;;9.37;100.00
12219;BME280;6172;42.646;23.344;2023-05-20T02:13:54;94900.47;;;9.30;100.00
12219;BME280;6172;42.646;23.344;2023-05-20T02:16:22;94906.31;;;9.32;100.00
12219;BME280;6172;42.646;23.344;2023-05-20T02:18:49;94911.06;;;9.17;100.00
12219;BME280;6172;42.646;23.344;2023-05-20T02:21:17;94909.25;;;8.97;100.00
12219;BME280;6172;42.646;23.344;2023-05-20T02:23:44;94912.41;;;8.92;100.00
12219;BME280;6172;42.646;23.344;2023-05-20T02:26:11;94920.13;;;8.97;100.00
12219;BME280;6172;42.646;23.344;2023-05-20T02:28:38;94910.34;;;9.10;100.00
12219;BME280;6172;42.646;23.344;2023-05-20T02:31:09;94906.75;;;9.23;100.00
12219;BME280;6172;42.646;23.344;2023-05-20T02:33:37;94907.03;;;9.36;100.00
12219;BME280;6172;42.646;23.344;2023-05-20T02:36:04;94893.03;;;9.41;100.00
12219;BME280;6172;42.646;23.344;2023-05-20T02:38:31;94897.97;;;9.53;100.00
12219;BME280;6172;42.646;23.344;2023-05-20T02:40:58;94895.59;;;9.58;100.00
12219;BME280;6172;42.646;23.344;2023-05-20T02:43:25;94895.16;;;9.63;100.00
12219;BME280;6172;42.646;23.344;2023-05-20T02:45:52;94889.69;;;9.67;100.00
12219;BME280;6172;42.646;23.344;2023-05-20T02:48:18;94889.63;;;9.74;100.00
12219;BME280;6172;42.646;23.344;2023-05-20T02:50:47;94895.38;;;9.83;100.00
12219;BME280;6172;42.646;23.344;2023-05-20T02:53:14;94893.41;;;9.87;100.00
12219;BME280;6172;42.646;23.344;2023-05-20T02:55:40;94880.53;;;9.91;100.00
12219;BME280;6172;42.646;23.344;2023-05-20T02:58:09;94888.53;;;9.64;100.00
12219;BME280;6172;42.646;23.344;2023-05-20T03:00:37;94887.75;;;9.67;100.00
12219;BME280;6172;42.646;23.344;2023-05-20T03:03:05;94889.22;;;9.75;100.00
12219;BME280;6172;42.646;23.344;2023-05-20T03:05:32;94887.66;;;9.78;100.00
12219;BME280;6172;42.646;23.344;2023-05-20T03:08:05;94889.16;;;9.82;100.00
12219;BME280;6172;42.646;23.344;2023-05-20T03:10:33;94900.72;;;9.90;100.00
12219;BME280;6172;42.646;23.344;2023-05-20T03:13:00;94897.66;;;9.88;100.00
12219;BME280;6172;42.646;23.344;2023-05-20T03:15:27;94901.16;;;9.92;100.00
12219;BME280;6172;42.646;23.344;2023-05-20T03:17:54;94904.66;;;9.92;100.00
12219;BME280;6172;42.646;23.344;2023-05-20T03:20:21;94910.31;;;9.64;100.00
12219;BME280;6172;42.646;23.344;2023-05-20T03:22:48;94911.41;;;9.23;100.00
12219;BME280;6172;42.646;23.344;2023-05-20T03:25:16;94911.47;;;9.16;100.00
12219;BME280;6172;42.646;23.344;2023-05-20T03:27:43;94915.78;;;9.10;100.00
12219;BME280;6172;42.646;23.344;2023-05-20T03:30:11;94925.81;;;9.20;100.00
12219;BME280;6172;42.646;23.344;2023-05-20T03:32:38;94920.03;;;9.11;100.00
12219;BME280;6172;42.646;23.344;2023-05-20T03:35:06;94931.59;;;9.25;100.00
12219;BME280;6172;42.646;23.344;2023-05-20T03:37:33;94927.78;;;9.16;100.00
12219;BME280;6172;42.646;23.344;2023-05-20T03:40:00;94932.88;;;9.07;100.00
12219;BME280;6172;42.646;23.344;2023-05-20T03:42:28;94932.47;;;9.12;100.00
12219;BME280;6172;42.646;23.344;2023-05-20T03:44:55;94931.63;;;9.18;100.00
12219;BME280;6172;42.646;23.344;2023-05-20T03:47:22;94942.44;;;9.32;100.00
12219;BME280;6172;42.646;23.344;2023-05-20T03:49:49;94934.00;;;9.13;100.00
12219;BME280;6172;42.646;23.344;2023-05-20T03:52:15;94938.19;;;9.28;100.00
12219;BME280;6172;42.646;23.344;2023-05-20T03:54:42;94941.16;;;9.47;100.00
12219;BME280;6172;42.646;23.344;2023-05-20T03:57:09;94944.56;;;9.58;100.00
12219;BME280;6172;42.646;23.344;2023-05-20T03:59:37;94957.69;;;9.70;100.00
12219;BME280;6172;42.646;23.344;2023-05-20T04:02:05;94937.41;;;9.78;100.00
12219;BME280;6172;42.646;23.344;2023-05-20T04:04:32;94947.84;;;9.87;100.00
12219;BME280;6172;42.646;23.344;2023-05-20T04:06:59;94945.88;;;9.87;100.00
12219;BME280;6172;42.646;23.344;2023-05-20T04:09:26;94955.28;;;9.79;100.00
12219;BME280;6172;42.646;23.344;2023-05-20T04:11:53;94950.97;;;9.85;100.00
12219;BME280;6172;42.646;23.344;2023-05-20T04:14:19;94957.06;;;10.00;100.00
12219;BME280;6172;42.646;23.344;2023-05-20T04:16:48;94951.19;;;10.05;100.00
12219;BME280;6172;42.646;23.344;2023-05-20T04:19:16;94958.09;;;10.16;100.00
12219;BME280;6172;42.646;23.344;2023-05-20T04:21:44;94949.69;;;10.00;100.00
12219;BME280;6172;42.646;23.344;2023-05-20T04:24:11;94947.28;;;10.09;100.00
12219;BME280;6172;42.646;23.344;2023-05-20T04:26:37;94935.81;;;10.25;100.00
12219;BME280;6172;42.646;23.344;2023-05-20T04:29:04;94928.38;;;10.29;100.00
12219;BME280;6172;42.646;23.344;2023-05-20T04:31:31;94918.75;;;10.55;100.00
12219;BME280;6172;42.646;23.344;2023-05-20T04:33:59;94924.88;;;10.62;100.00
12219;BME280;6172;42.646;23.344;2023-05-20T04:36:27;94941.06;;;10.76;100.00
12219;BME280;6172;42.646;23.344;2023-05-20T04:38:54;94936.44;;;10.73;100.00
12219;BME280;6172;42.646;23.344;2023-05-20T04:41:20;94939.34;;;10.89;100.00
12219;BME280;6172;42.646;23.344;2023-05-20T04:43:48;94937.59;;;11.02;100.00
12219;BME280;6172;42.646;23.344;2023-05-20T04:46:15;94944.53;;;11.10;100.00
12219;BME280;6172;42.646;23.344;2023-05-20T04:48:42;94946.66;;;11.26;100.00
12219;BME280;6172;42.646;23.344;2023-05-20T04:51:10;94932.59;;;11.27;100.00
12219;BME280;6172;42.646;23.344;2023-05-20T04:53:37;94946.09;;;11.64;100.00
12219;BME280;6172;42.646;23.344;2023-05-20T04:56:05;94944.22;;;11.84;100.00
12219;BME280;6172;42.646;23.344;2023-05-20T04:58:32;94937.66;;;12.01;100.00
12219;BME280;6172;42.646;23.344;2023-05-20T05:00:59;94933.69;;;12.06;100.00
12219;BME280;6172;42.646;23.344;2023-05-20T05:03:27;94933.97;;;12.11;100.00
12219;BME280;6172;42.646;23.344;2023-05-20T05:05:55;94937.53;;;12.31;100.00
12219;BME280;6172;42.646;23.344;2023-05-20T05:08:24;94938.81;;;12.46;100.00
12219;BME280;6172;42.646;23.344;2023-05-20T05:10:51;94942.63;;;12.72;100.00
12219;BME280;6172;42.646;23.344;2023-05-20T05:13:18;94938.00;;;12.69;100.00
12219;BME280;6172;42.646;23.344;2023-05-20T05:15:45;94943.91;;;12.87;100.00
12219;BME280;6172;42.646;23.344;2023-05-20T05:18:12;94936.19;;;12.62;100.00
12219;BME280;6172;42.646;23.344;2023-05-20T05:20:42;94934.13;;;13.06;100.00
12219;BME280;6172;42.646;23.344;2023-05-20T05:23:09;94938.19;;;12.98;100.00
12219;BME280;6172;42.646;23.344;2023-05-20T05:25:37;94937.88;;;12.96;100.00
12219;BME280;6172;42.646;23.344;2023-05-20T05:28:04;94929.63;;;13.15;100.00
12219;BME280;6172;42.646;23.344;2023-05-20T05:30:31;94930.94;;;13.27;100.00
12219;BME280;6172;42.646;23.344;2023-05-20T05:32:58;94924.81;;;13.55;100.00
12219;BME280;6172;42.646;23.344;2023-05-20T05:35:25;94919.59;;;13.60;100.00
12219;BME280;6172;42.646;23.344;2023-05-20T05:37:51;94911.72;;;14.55;100.00
12219;BME280;6172;42.646;23.344;2023-05-20T05:40:18;94893.09;;;16.72;100.00
12219;BME280;6172;42.646;23.344;2023-05-20T05:42:46;94892.25;;;18.24;100.00
12219;BME280;6172;42.646;23.344;2023-05-20T05:45:13;94878.59;;;20.50;89.73
12219;BME280;6172;42.646;23.344;2023-05-20T05:47:41;94878.84;;;20.14;76.37
12219;BME280;6172;42.646;23.344;2023-05-20T05:50:08;94884.53;;;20.96;73.37
12219;BME280;6172;42.646;23.344;2023-05-20T05:52:35;94890.88;;;21.69;65.37
12219;BME280;6172;42.646;23.344;2023-05-20T05:55:02;94882.22;;;23.42;55.62
12219;BME280;6172;42.646;23.344;2023-05-20T05:57:29;94880.63;;;21.75;60.28
12219;BME280;6172;42.646;23.344;2023-05-20T05:59:57;94875.44;;;22.52;58.42
12219;BME280;6172;42.646;23.344;2023-05-20T06:02:25;94878.34;;;22.63;59.02
12219;BME280;6172;42.646;23.344;2023-05-20T06:04:52;94886.75;;;22.14;58.61
12219;BME280;6172;42.646;23.344;2023-05-20T06:07:19;94875.47;;;22.77;61.60
12219;BME280;6172;42.646;23.344;2023-05-20T06:09:46;94880.28;;;22.22;61.02
12219;BME280;6172;42.646;23.344;2023-05-20T06:12:13;94865.59;;;23.78;54.69
12219;BME280;6172;42.646;23.344;2023-05-20T06:14:39;94862.84;;;22.96;54.94
12219;BME280;6172;42.646;23.344;2023-05-20T06:17:07;94867.34;;;22.34;55.43
12219;BME280;6172;42.646;23.344;2023-05-20T06:19:34;94861.34;;;24.67;50.72
12219;BME280;6172;42.646;23.344;2023-05-20T06:22:01;94857.44;;;27.48;40.87
12219;BME280;6172;42.646;23.344;2023-05-20T06:24:28;94867.84;;;25.39;43.56
12219;BME280;6172;42.646;23.344;2023-05-20T06:26:55;94859.03;;;25.90;42.91
12219;BME280;6172;42.646;23.344;2023-05-20T06:29:22;94857.19;;;25.10;41.55
12219;BME280;6172;42.646;23.344;2023-05-20T06:31:49;94854.25;;;24.24;42.19
12219;BME280;6172;42.646;23.344;2023-05-20T06:34:17;94841.69;;;23.97;44.90
12219;BME280;6172;42.646;23.344;2023-05-20T06:36:44;94847.56;;;24.05;46.49
12219;BME280;6172;42.646;23.344;2023-05-20T06:39:11;94845.91;;;26.65;38.32
12219;BME280;6172;42.646;23.344;2023-05-20T06:41:38;94836.66;;;26.18;37.60
12219;BME280;6172;42.646;23.344;2023-05-20T06:44:05;94834.94;;;26.78;36.16
12219;BME280;6172;42.646;23.344;2023-05-20T06:46:32;94836.75;;;24.18;40.31
12219;BME280;6172;42.646;23.344;2023-05-20T06:48:59;94837.97;;;24.59;41.19
12219;BME280;6172;42.646;23.344;2023-05-20T06:51:28;94834.13;;;25.48;38.07
12219;BME280;6172;42.646;23.344;2023-05-20T06:53:55;94839.78;;;26.66;37.07
12219;BME280;6172;42.646;23.344;2023-05-20T06:56:21;94839.47;;;25.74;37.26
12219;BME280;6172;42.646;23.344;2023-05-20T06:58:48;94838.44;;;25.22;38.24
12219;BME280;6172;42.646;23.344;2023-05-20T07:01:15;94845.75;;;25.03;39.74
12219;BME280;6172;42.646;23.344;2023-05-20T07:03:42;94854.72;;;25.89;39.00
12219;BME280;6172;42.646;23.344;2023-05-20T07:06:09;94858.25;;;25.90;37.55
12219;BME280;6172;42.646;23.344;2023-05-20T07:08:38;94843.75;;;26.25;35.27
12219;BME280;6172;42.646;23.344;2023-05-20T07:11:04;94839.94;;;24.42;40.42
12219;BME280;6172;42.646;23.344;2023-05-20T07:13:31;94844.59;;;24.67;39.11
12219;BME280;6172;42.646;23.344;2023-05-20T07:15:58;94843.19;;;24.30;40.37
12219;BME280;6172;42.646;23.344;2023-05-20T07:18:25;94842.03;;;23.43;41.63
12219;BME280;6172;42.646;23.344;2023-05-20T07:20:52;94834.28;;;24.84;40.26
12219;BME280;6172;42.646;23.344;2023-05-20T07:23:21;94827.91;;;24.78;40.22
12219;BME280;6172;42.646;23.344;2023-05-20T07:25:49;94827.81;;;25.86;38.48
12219;BME280;6172;42.646;23.344;2023-05-20T07:28:16;94826.66;;;26.45;36.34
12219;BME280;6172;42.646;23.344;2023-05-20T07:30:43;94820.03;;;24.18;39.59
12219;BME280;6172;42.646;23.344;2023-05-20T07:33:14;94821.13;;;23.84;39.21
12219;BME280;6172;42.646;23.344;2023-05-20T07:35:41;94818.44;;;24.01;39.55
12219;BME280;6172;42.646;23.344;2023-05-20T07:38:09;94832.66;;;25.69;37.74
12219;BME280;6172;42.646;23.344;2023-05-20T07:40:36;94833.50;;;27.12;33.44
12219;BME280;6172;42.646;23.344;2023-05-20T07:43:06;94838.19;;;26.93;34.18
12219;BME280;6172;42.646;23.344;2023-05-20T07:45:33;94841.41;;;24.32;37.62
12219;BME280;6172;42.646;23.344;2023-05-20T07:48:01;94840.69;;;24.01;39.31
12219;BME280;6172;42.646;23.344;2023-05-20T07:50:28;94838.28;;;24.72;38.86
12219;BME280;6172;42.646;23.344;2023-05-20T07:52:54;94828.13;;;24.16;39.05
12219;BME280;6172;42.646;23.344;2023-05-20T07:55:21;94824.81;;;24.65;38.90
12219;BME280;6172;42.646;23.344;2023-05-20T07:57:48;94828.78;;;25.23;38.31
12219;BME280;6172;42.646;23.344;2023-05-20T08:00:17;94825.22;;;25.22;38.50
12219;BME280;6172;42.646;23.344;2023-05-20T08:02:43;94828.84;;;26.68;34.57
12219;BME280;6172;42.646;23.344;2023-05-20T08:05:10;94828.75;;;26.96;34.19
12219;BME280;6172;42.646;23.344;2023-05-20T08:07:37;94831.44;;;27.12;33.21
12219;BME280;6172;42.646;23.344;2023-05-20T08:10:06;94813.03;;;27.63;33.15
12219;BME280;6172;42.646;23.344;2023-05-20T08:12:34;94819.66;;;25.06;37.12
12219;BME280;6172;42.646;23.344;2023-05-20T08:15:00;94823.31;;;24.64;38.56
12219;BME280;6172;42.646;23.344;2023-05-20T08:17:29;94818.56;;;23.80;40.24
12219;BME280;6172;42.646;23.344;2023-05-20T08:19:55;94831.19;;;21.94;42.81
12219;BME280;6172;42.646;23.344;2023-05-20T08:22:22;94816.97;;;22.86;41.92
12219;BME280;6172;42.646;23.344;2023-05-20T08:24:49;94814.66;;;22.39;43.66
12219;BME280;6172;42.646;23.344;2023-05-20T08:27:16;94806.25;;;23.92;42.12
12219;BME280;6172;42.646;23.344;2023-05-20T08:29:43;94808.88;;;24.66;39.26
12219;BME280;6172;42.646;23.344;2023-05-20T08:32:10;94807.63;;;24.83;39.32
12219;BME280;6172;42.646;23.344;2023-05-20T08:34:38;94806.19;;;24.99;39.29
12219;BME280;6172;42.646;23.344;2023-05-20T08:37:05;94800.53;;;24.77;38.53
12219;BME280;6172;42.646;23.344;2023-05-20T08:39:32;94810.19;;;23.75;41.15
12219;BME280;6172;42.646;23.344;2023-05-20T08:41:59;94805.50;;;24.45;40.00
12219;BME280;6172;42.646;23.344;2023-05-20T08:44:26;94799.13;;;24.34;40.42
12219;BME280;6172;42.646;23.344;2023-05-20T08:46:54;94804.34;;;23.42;40.80
12219;BME280;6172;42.646;23.344;2023-05-20T08:49:22;94808.91;;;23.14;41.37
12219;BME280;6172;42.646;23.344;2023-05-20T08:51:50;94820.97;;;22.40;43.23
12219;BME280;6172;42.646;23.344;2023-05-20T08:54:17;94812.63;;;22.60;43.54
12219;BME280;6172;42.646;23.344;2023-05-20T08:56:48;94817.09;;;22.32;43.85
12219;BME280;6172;42.646;23.344;2023-05-20T08:59:16;94816.19;;;23.37;43.67
12219;BME280;6172;42.646;23.344;2023-05-20T09:01:43;94806.78;;;24.02;41.23
12219;BME280;6172;42.646;23.344;2023-05-20T09:04:10;94807.00;;;23.93;42.40
12219;BME280;6172;42.646;23.344;2023-05-20T09:06:43;94794.50;;;24.25;41.45
12219;BME280;6172;42.646;23.344;2023-05-20T09:09:12;94795.34;;;23.94;41.04
12219;BME280;6172;42.646;23.344;2023-05-20T09:11:40;94784.03;;;23.67;42.81
12219;BME280;6172;42.646;23.344;2023-05-20T09:14:07;94778.44;;;23.61;42.82
12219;BME280;6172;42.646;23.344;2023-05-20T09:16:34;94785.44;;;23.82;42.25
12219;BME280;6172;42.646;23.344;2023-05-20T09:19:01;94786.13;;;23.72;42.76
12219;BME280;6172;42.646;23.344;2023-05-20T09:21:28;94780.66;;;23.52;42.76
12219;BME280;6172;42.646;23.344;2023-05-20T09:23:55;94783.53;;;22.81;44.26
12219;BME280;6172;42.646;23.344;2023-05-20T09:26:25;94779.06;;;23.76;44.08
12219;BME280;6172;42.646;23.344;2023-05-20T09:28:54;94779.16;;;22.94;43.97
12219;BME280;6172;42.646;23.344;2023-05-20T09:31:25;94764.44;;;23.87;42.34
12219;BME280;6172;42.646;23.344;2023-05-20T09:33:53;94768.03;;;23.98;40.95
12219;BME280;6172;42.646;23.344;2023-05-20T09:36:21;94764.47;;;23.92;43.06
12219;BME280;6172;42.646;23.344;2023-05-20T09:38:51;94766.53;;;23.97;42.23
12219;BME280;6172;42.646;23.344;2023-05-20T09:41:19;94764.22;;;23.96;42.40
12219;BME280;6172;42.646;23.344;2023-05-20T09:43:50;94769.94;;;23.08;42.78
12219;BME280;6172;42.646;23.344;2023-05-20T09:46:18;94767.56;;;22.96;43.05
12219;BME280;6172;42.646;23.344;2023-05-20T09:48:45;94762.91;;;22.87;44.93
12219;BME280;6172;42.646;23.344;2023-05-20T09:51:12;94761.38;;;23.12;46.27
12219;BME280;6172;42.646;23.344;2023-05-20T09:53:40;94756.56;;;23.12;43.60
12219;BME280;6172;42.646;23.344;2023-05-20T09:56:07;94752.59;;;22.42;46.51
12219;BME280;6172;42.646;23.344;2023-05-20T09:58:35;94761.69;;;23.56;45.29
12219;BME280;6172;42.646;23.344;2023-05-20T10:01:05;94748.69;;;22.54;44.33
12219;BME280;6172;42.646;23.344;2023-05-20T10:03:32;94740.72;;;23.24;44.83
12219;BME280;6172;42.646;23.344;2023-05-20T10:06:19;94736.41;;;24.02;44.86
12219;BME280;6172;42.646;23.344;2023-05-20T10:09:00;94735.22;;;24.19;43.39
12219;BME280;6172;42.646;23.344;2023-05-20T10:11:36;94735.84;;;23.81;41.72
12219;BME280;6172;42.646;23.344;2023-05-20T10:14:17;94725.81;;;23.58;42.76
12219;BME280;6172;42.646;23.344;2023-05-20T10:16:52;94731.25;;;23.05;41.97
12219;BME280;6172;42.646;23.344;2023-05-20T10:19:26;94730.25;;;23.44;42.36
12219;BME280;6172;42.646;23.344;2023-05-20T10:21:59;94715.25;;;24.26;40.56
12219;BME280;6172;42.646;23.344;2023-05-20T10:24:31;94719.50;;;24.91;40.50
12219;BME280;6172;42.646;23.344;2023-05-20T10:26:59;94717.91;;;24.57;40.40
12219;BME280;6172;42.646;23.344;2023-05-20T10:29:27;94711.34;;;24.71;39.86
12219;BME280;6172;42.646;23.344;2023-05-20T10:31:55;94713.34;;;24.76;39.11
12219;BME280;6172;42.646;23.344;2023-05-20T10:34:22;94724.59;;;22.97;40.81
12219;BME280;6172;42.646;23.344;2023-05-20T10:36:58;94725.06;;;21.99;41.69
12219;BME280;6172;42.646;23.344;2023-05-20T10:39:25;94719.47;;;22.90;42.39
12219;BME280;6172;42.646;23.344;2023-05-20T10:42:04;94714.72;;;21.59;42.51
12219;BME280;6172;42.646;23.344;2023-05-20T10:44:40;94696.03;;;21.39;42.99
12219;BME280;6172;42.646;23.344;2023-05-20T10:47:08;94702.72;;;21.67;42.75
12219;BME280;6172;42.646;23.344;2023-05-20T10:49:38;94697.16;;;21.67;43.19
12219;BME280;6172;42.646;23.344;2023-05-20T10:52:06;94696.56;;;21.43;43.23
12219;BME280;6172;42.646;23.344;2023-05-20T10:54:34;94692.94;;;21.72;42.81
12219;BME280;6172;42.646;23.344;2023-05-20T10:59:32;94686.19;;;21.78;43.72
12219;BME280;6172;42.646;23.344;2023-05-20T11:02:00;94680.66;;;21.99;43.12
12219;BME280;6172;42.646;23.344;2023-05-20T11:04:29;94676.66;;;21.59;44.25
12219;BME280;6172;42.646;23.344;2023-05-20T11:06:56;94678.91;;;22.01;44.34
12219;BME280;6172;42.646;23.344;2023-05-20T11:09:23;94674.41;;;22.04;41.80
12219;BME280;6172;42.646;23.344;2023-05-20T11:11:52;94673.25;;;21.01;45.32
12219;BME280;6172;42.646;23.344;2023-05-20T11:14:20;94679.59;;;20.87;44.30
12219;BME280;6172;42.646;23.344;2023-05-20T11:16:50;94681.00;;;21.11;43.93
12219;BME280;6172;42.646;23.344;2023-05-20T11:19:17;94678.59;;;21.53;42.86
12219;BME280;6172;42.646;23.344;2023-05-20T11:21:46;94674.19;;;20.63;43.70
12219;BME280;6172;42.646;23.344;2023-05-20T11:24:14;94671.81;;;21.05;43.80
12219;BME280;6172;42.646;23.344;2023-05-20T11:26:47;94670.53;;;20.28;45.04
12219;BME280;6172;42.646;23.344;2023-05-20T11:29:14;94665.38;;;20.21;45.87
12219;BME280;6172;42.646;23.344;2023-05-20T11:31:41;94664.72;;;20.26;45.99
12219;BME280;6172;42.646;23.344;2023-05-20T11:34:08;94651.44;;;19.78;47.00
12219;BME280;6172;42.646;23.344;2023-05-20T11:36:39;94649.84;;;19.71;46.99
12219;BME280;6172;42.646;23.344;2023-05-20T11:39:08;94657.47;;;19.76;47.30
12219;BME280;6172;42.646;23.344;2023-05-20T11:41:35;94650.69;;;20.15;46.56
12219;BME280;6172;42.646;23.344;2023-05-20T11:44:03;94648.72;;;19.92;46.61
12219;BME280;6172;42.646;23.344;2023-05-20T11:46:30;94645.09;;;20.01;47.16
12219;BME280;6172;42.646;23.344;2023-05-20T11:48:57;94639.47;;;19.95;47.57
12219;BME280;6172;42.646;23.344;2023-05-20T11:51:26;94642.22;;;19.81;47.39
12219;BME280;6172;42.646;23.344;2023-05-20T11:53:58;94641.19;;;19.54;48.31
12219;BME280;6172;42.646;23.344;2023-05-20T11:56:28;94641.03;;;19.34;51.11
12219;BME280;6172;42.646;23.344;2023-05-20T11:58:56;94649.97;;;19.53;52.39
12219;BME280;6172;42.646;23.344;2023-05-20T12:01:23;94648.91;;;19.50;54.57
12219;BME280;6172;42.646;23.344;2023-05-20T12:03:50;94637.53;;;19.72;54.57
12219;BME280;6172;42.646;23.344;2023-05-20T12:06:17;94638.75;;;19.33;57.51
12219;BME280;6172;42.646;23.344;2023-05-20T12:08:44;94637.69;;;19.54;56.11
12219;BME280;6172;42.646;23.344;2023-05-20T12:11:11;94625.75;;;19.48;57.24
12219;BME280;6172;42.646;23.344;2023-05-20T12:13:39;94635.53;;;19.02;58.22
12219;BME280;6172;42.646;23.344;2023-05-20T12:16:06;94637.78;;;18.80;61.29
12219;BME280;6172;42.646;23.344;2023-05-20T12:18:33;94634.41;;;18.85;63.02
12219;BME280;6172;42.646;23.344;2023-05-20T12:21:00;94636.09;;;18.50;66.29
12219;BME280;6172;42.646;23.344;2023-05-20T12:23:26;94648.56;;;18.27;66.42
12219;BME280;6172;42.646;23.344;2023-05-20T12:25:58;94672.91;;;18.29;66.50
12219;BME280;6172;42.646;23.344;2023-05-20T12:28:25;94703.91;;;17.88;66.48
12219;BME280;6172;42.646;23.344;2023-05-20T12:30:53;94688.09;;;17.34;66.54
12219;BME280;6172;42.646;23.344;2023-05-20T12:33:20;94699.84;;;17.16;71.77
12219;BME280;6172;42.646;23.344;2023-05-20T12:35:47;94698.31;;;16.76;81.87
12219;BME280;6172;42.646;23.344;2023-05-20T12:38:14;94679.59;;;16.62;87.63
12219;BME280;6172;42.646;23.344;2023-05-20T12:40:41;94695.94;;;16.65;87.00
12219;BME280;6172;42.646;23.344;2023-05-20T12:43:08;94691.44;;;16.19;90.98
12219;BME280;6172;42.646;23.344;2023-05-20T12:45:35;94699.94;;;16.12;99.13
12219;BME280;6172;42.646;23.344;2023-05-20T12:48:04;94690.69;;;16.19;99.73
12219;BME280;6172;42.646;23.344;2023-05-20T12:50:32;94699.81;;;16.16;99.13
12219;BME280;6172;42.646;23.344;2023-05-20T12:52:59;94692.19;;;16.20;95.58
12219;BME280;6172;42.646;23.344;2023-05-20T12:55:26;94695.81;;;16.38;94.29
12219;BME280;6172;42.646;23.344;2023-05-20T12:57:53;94683.97;;;16.50;90.57
12219;BME280;6172;42.646;23.344;2023-05-20T13:00:20;94684.72;;;16.72;91.56
12219;BME280;6172;42.646;23.344;2023-05-20T13:02:47;94667.66;;;17.04;89.14